Washburn, ME

4:16 PM EDT on July 10, 2014 (GMT -0400)
Northern Aroostook Regional (KFVE) Elev 988 ft | 47.29 °N, 68.31 °W | Change Station

Current weather conditions updated 23 minutes ago

Mostly Cloudy
Mostly Cloudy
67 °F
Feels Like 67 °F
N
13
Wind Variable Wind from West

Tomorrow is forecast to be Much Warmer than today.

Today
High -- | Low -- °F
--% Chance of Precip.
Yesterday
High -- | Low -- °F
Precip. -- in
4:48 AM 8:26 PM
Waxing Gibbous, 96% visible
Pressure 30.03 in
Visibility 10.0 miles
Clouds Mostly Cloudy 5500 ft
Dew Point 47 °F
Humidity 49%
Rainfall 0.00 in
Snow Depth Not available.
UV 3 out of 12
Pollen 5.20 out of 12
Ozone Good
PM2.5 Good
Flu Activity Regional
METAR KFVE 101953Z AUTO 26011KT 10SM BKN055 19/08 A3003 RMK AO2 SLP167 T01940083

More Conditions Fewer Conditions

Pressure 30.03 in
Visibility 10.0 miles
Clouds Mostly Cloudy 5500 ft
Dew Point 47 °F
Humidity 49%
Rainfall 0.00 in
Snow Depth Not available.
UV 3 out of 12
Pollen 5.20 out of 12
Ozone Good
PM2.5 Good
Flu Activity Regional
METAR KFVE 101953Z AUTO 26011KT 10SM BKN055 19/08 A3003 RMK AO2 SLP167 T01940083

More Conditions Fewer Conditions

10-Day Weather Forecast

Almanac

Astronomy

Jul. 10, 2014 Rise Set
Actual Time 4:48 AM EDT 8:26 PM EDT
Civil Twilight 4:10 AM EDT 9:04 PM EDT
Nautical Twilight 3:18 AM EDT 9:55 PM EDT
Astronomical Twilight 2:08 AM EDT 11:05 PM EDT
Moon 6:31 PM EDT 3:01 AM EDT
Length of Visible Light 16h 54m
Length of Day
15h 37m
Tomorrow will be 1m 29s shorter.
Waxing Gibbous, 96% of the Moon is Illuminated
Today
Waxing Gibbous
Jul 12
Full
Jul 18
Last Quarter
Jul 26
New
Aug 3
First Quarter

Today's Extremes

State Highs State Lows

Community

WunderPhotos

Upload Photos

1,732,252 photos uploaded!

Nearby

Air Quality

  Air Quality AQ Index Pollutant
Yesterday Good
PM2.5
Yesterday Good
OZONE
Current Good
OZONE
Current Good
PM2.5
Thursday Good
OZONE
Thursday Good
PM2.5
Friday Good
OZONE
Friday Good
PM2.5
Saturday Good
OZONE
Saturday Good
PM2.5
Sunday Good
OZONE
Sunday Good
PM2.5
Monday Good
OZONE
Monday Good
PM2.5
Tuesday Good
OZONE
Tuesday Good
PM2.5

Snow Depth

Station Depth Elevation
No new snow has been reported.

Earthquake Activity

City Distance Mag. Time & Date
No recent earthquake activity has been reported nearby.
Minimum magnitude displayed is 2.5.

Coastal Water Temperatures

Place Temperature
No Stations Reporting

Nearby Weather Stations

Station Location Temp. Heat Index Dew Point Humidity Wind Precip. Elev Updated Type
Micmac Environmental, Caribou, ME 70.6 °F 77 °F 54 °F 55% WNW  at  4.0 mph 0.00 in / hr 634 ft 4:16 PM EDT Rapid Fire
Micmac Environmental, Presque Isle, ME 72.4 °F 77 °F 50 °F 46% NW  at  14.0 mph 0.00 in / hr 540 ft 4:16 PM EDT Rapid Fire

Show More Stations Show Fewer Stations